createdAt,value
2018-07-30T00:09:01.993Z,22.90
2018-07-30T00:15:07.483Z,22.80
2018-07-30T00:21:12.941Z,22.80
2018-07-30T00:27:18.467Z,22.70
2018-07-30T00:33:23.914Z,22.50
2018-07-30T00:39:29.376Z,22.40
2018-07-30T00:45:34.857Z,22.30
2018-07-30T00:51:40.487Z,22.10
2018-07-30T00:57:46.325Z,21.90
2018-07-30T01:03:52.102Z,21.80
2018-07-30T01:09:57.957Z,21.60
2018-07-30T01:16:03.770Z,21.40
2018-07-30T01:22:09.602Z,21.30
2018-07-30T01:28:15.383Z,21.20
2018-07-30T01:34:21.194Z,21.10
2018-07-30T01:40:27.088Z,21.00
2018-07-30T01:46:32.950Z,20.80
2018-07-30T01:52:38.717Z,20.70
2018-07-30T01:58:44.566Z,20.60
2018-07-30T02:04:50.428Z,20.50
2018-07-30T02:17:01.635Z,20.40
2018-07-30T02:23:07.842Z,20.20
2018-07-30T02:29:13.301Z,20.00
2018-07-30T02:35:18.828Z,19.90
2018-07-30T02:41:24.256Z,19.80
2018-07-30T02:47:29.707Z,19.80
2018-07-30T02:53:35.262Z,19.70
2018-07-30T02:59:40.736Z,19.60
2018-07-30T03:05:46.212Z,19.40
2018-07-30T03:11:51.657Z,19.30
2018-07-30T03:17:57.116Z,19.10
2018-07-30T03:24:02.634Z,19.00
2018-07-30T03:30:10.431Z,19.00
2018-07-30T03:36:15.900Z,18.90
2018-07-30T03:42:21.452Z,18.80
2018-07-30T03:48:26.855Z,18.80
2018-07-30T03:54:32.371Z,18.90
2018-07-30T04:00:37.824Z,19.00
2018-07-30T04:06:43.255Z,19.00
2018-07-30T04:12:48.802Z,19.10
2018-07-30T04:18:54.222Z,19.20
2018-07-30T04:24:59.689Z,19.30
2018-07-30T04:31:05.330Z,19.50
2018-07-30T04:37:10.811Z,19.60
2018-07-30T04:43:16.752Z,19.70
2018-07-30T04:49:22.608Z,19.70
2018-07-30T04:55:28.466Z,19.70
2018-07-30T05:01:34.252Z,19.60
2018-07-30T05:07:40.119Z,19.60
2018-07-30T05:13:45.948Z,19.60
2018-07-30T05:19:51.758Z,19.70
2018-07-30T05:25:57.625Z,19.80
2018-07-30T05:32:03.493Z,20.00
2018-07-30T05:38:09.348Z,20.20
2018-07-30T05:44:15.155Z,20.50
2018-07-30T05:50:20.992Z,20.80
2018-07-30T05:56:26.851Z,20.90
2018-07-30T06:02:32.631Z,21.10
2018-07-30T06:08:38.486Z,21.40
2018-07-30T06:14:44.485Z,21.60
2018-07-30T06:20:50.371Z,21.90
2018-07-30T06:26:56.201Z,22.20
2018-07-30T06:33:02.008Z,22.60
2018-07-30T06:39:10.206Z,23.10
2018-07-30T06:45:15.777Z,23.40
2018-07-30T06:51:21.295Z,23.60
2018-07-30T06:57:26.791Z,24.00
2018-07-30T07:03:32.303Z,24.40
2018-07-30T07:09:39.067Z,24.70
2018-07-30T07:15:45.014Z,25.10
2018-07-30T07:21:50.816Z,25.60
2018-07-30T07:27:56.692Z,25.90
2018-07-30T07:34:02.525Z,26.30
2018-07-30T07:40:09.169Z,26.70
2018-07-30T07:46:14.994Z,27.30
2018-07-30T07:52:20.882Z,27.60
2018-07-30T07:58:26.833Z,28.00
2018-07-30T08:04:32.651Z,28.60
2018-07-30T08:10:38.597Z,29.20
2018-07-30T08:16:44.494Z,29.40
2018-07-30T08:22:50.511Z,29.90
2018-07-30T08:28:56.513Z,30.40
2018-07-30T08:35:02.423Z,30.90
2018-07-30T08:41:08.390Z,31.10
2018-07-30T08:47:14.389Z,31.50
2018-07-30T08:53:20.372Z,31.70
2018-07-30T08:59:26.249Z,32.20
2018-07-30T09:05:32.141Z,32.30
2018-07-30T09:11:38.400Z,32.70
2018-07-30T09:17:44.328Z,32.70
2018-07-30T09:23:50.312Z,33.30
2018-07-30T09:29:56.233Z,34.00
2018-07-30T09:36:02.202Z,34.30
2018-07-30T09:42:08.111Z,34.30
2018-07-30T09:48:14.074Z,34.40
2018-07-30T09:54:20.018Z,34.30
2018-07-30T10:00:30.946Z,34.20
2018-07-30T10:06:36.983Z,34.10
2018-07-30T10:12:42.957Z,34.60
2018-07-30T10:18:48.886Z,34.20
2018-07-30T10:24:54.820Z,34.00
2018-07-30T10:31:00.790Z,34.10
2018-07-30T10:37:06.724Z,34.60
2018-07-30T10:43:12.652Z,35.20
2018-07-30T10:49:18.465Z,35.10
2018-07-30T10:55:24.398Z,35.20
2018-07-30T11:01:30.290Z,35.50
2018-07-30T11:07:36.173Z,35.50
2018-07-30T11:13:42.161Z,35.50
2018-07-30T11:19:48.142Z,36.00
2018-07-30T11:25:54.085Z,37.00
2018-07-30T11:32:00.019Z,37.40
2018-07-30T11:38:05.904Z,38.00
2018-07-30T11:44:11.922Z,38.50
2018-07-30T11:50:17.796Z,39.50
2018-07-30T11:56:23.813Z,39.20
2018-07-30T12:02:29.712Z,38.50
2018-07-30T12:08:35.636Z,39.20
2018-07-30T12:14:41.647Z,39.80
2018-07-30T12:20:47.505Z,39.40
2018-07-30T12:26:53.434Z,38.70
2018-07-30T12:32:59.280Z,37.00
2018-07-30T12:39:07.949Z,35.60
2018-07-30T12:45:13.893Z,36.50
2018-07-30T12:51:19.804Z,38.70
2018-07-30T12:57:25.665Z,40.40
2018-07-30T13:03:31.553Z,40.70
2018-07-30T13:09:37.466Z,41.40
2018-07-30T13:15:43.253Z,42.20
2018-07-30T13:21:49.167Z,43.50
2018-07-30T13:27:54.648Z,43.60
2018-07-30T13:34:00.390Z,42.20
2018-07-30T13:40:06.357Z,42.50
2018-07-30T13:46:11.938Z,42.60
2018-07-30T13:52:17.463Z,42.70
2018-07-30T13:58:23.368Z,40.30
2018-07-30T14:04:29.560Z,38.70
2018-07-30T14:10:35.317Z,38.10
2018-07-30T14:16:41.530Z,40.70
2018-07-30T14:22:47.520Z,41.70
2018-07-30T14:28:53.397Z,41.40
2018-07-30T14:34:59.193Z,43.80
2018-07-30T14:47:10.413Z,45.90
2018-07-30T14:53:16.240Z,44.80
2018-07-30T14:59:22.197Z,45.50
2018-07-30T15:05:27.867Z,46.10
2018-07-30T15:11:33.353Z,45.30
2018-07-30T15:17:38.885Z,45.90
2018-07-30T15:23:44.393Z,45.20
2018-07-30T15:29:50.030Z,43.90
2018-07-30T15:35:55.737Z,42.70
2018-07-30T15:42:01.215Z,44.60
2018-07-30T15:48:06.666Z,44.30
2018-07-30T15:54:12.120Z,43.60
2018-07-30T16:00:17.622Z,44.10
2018-07-30T16:06:23.094Z,43.30
2018-07-30T16:12:28.586Z,43.90
2018-07-30T16:18:34.069Z,44.00
2018-07-30T16:24:39.571Z,42.40
2018-07-30T16:30:45.146Z,41.80
2018-07-30T16:36:50.542Z,41.00
2018-07-30T16:42:56.061Z,39.90
2018-07-30T16:49:01.585Z,39.50
2018-07-30T16:55:07.753Z,38.20
2018-07-30T17:01:13.684Z,37.00
2018-07-30T17:07:19.742Z,36.10
2018-07-30T17:13:25.698Z,35.40
2018-07-30T17:19:31.769Z,35.40
2018-07-30T17:25:37.658Z,35.40
2018-07-30T17:31:43.621Z,35.60
2018-07-30T17:37:49.539Z,35.20
2018-07-30T17:43:55.472Z,35.60
2018-07-30T17:50:01.328Z,36.30
2018-07-30T17:56:07.178Z,36.80
2018-07-30T18:02:13.099Z,37.30
2018-07-30T18:08:18.882Z,36.70
2018-07-30T18:14:24.835Z,36.90
2018-07-30T18:20:30.669Z,37.10
2018-07-30T18:26:36.572Z,36.60
2018-07-30T18:32:42.447Z,35.30
2018-07-30T18:38:48.333Z,34.10
2018-07-30T18:44:54.280Z,33.10
2018-07-30T18:50:59.768Z,32.30
2018-07-30T18:57:05.293Z,31.50
2018-07-30T19:03:10.776Z,30.90
2018-07-30T19:09:16.257Z,30.30
2018-07-30T19:15:21.751Z,29.70
2018-07-30T19:21:27.213Z,29.30
2018-07-30T19:27:32.712Z,29.00
2018-07-30T19:33:38.164Z,28.70
2018-07-30T19:39:43.665Z,28.40
2018-07-30T19:45:49.117Z,28.10
2018-07-30T19:51:54.593Z,28.00
2018-07-30T19:58:00.170Z,27.80
2018-07-30T20:04:05.580Z,27.60
2018-07-30T20:10:11.039Z,27.20
2018-07-30T20:16:16.493Z,27.10
2018-07-30T20:22:22.047Z,26.90
2018-07-30T20:28:28.228Z,26.70
2018-07-30T20:34:33.697Z,26.60
2018-07-30T20:40:39.272Z,26.50
2018-07-30T20:46:44.732Z,26.50
2018-07-30T20:52:50.456Z,26.30
2018-07-30T20:58:55.996Z,26.30
2018-07-30T21:05:01.407Z,26.20
2018-07-30T21:11:06.908Z,26.10
2018-07-30T21:17:12.429Z,26.00
2018-07-30T21:23:17.877Z,25.90
2018-07-30T21:29:23.347Z,25.80
2018-07-30T21:35:28.799Z,25.70
2018-07-30T21:41:35.403Z,25.60
2018-07-30T21:47:40.843Z,25.50
2018-07-30T21:53:46.337Z,25.30
2018-07-30T21:59:51.770Z,25.20
2018-07-30T22:05:59.303Z,25.10
2018-07-30T22:12:04.810Z,25.00
2018-07-30T22:18:10.303Z,24.90
2018-07-30T22:24:15.785Z,24.70
2018-07-30T22:30:21.278Z,24.60
2018-07-30T22:36:26.751Z,24.30
2018-07-30T22:42:32.239Z,24.10
2018-07-30T22:54:42.748Z,23.80
2018-07-30T23:00:48.246Z,23.70
2018-07-30T23:06:53.725Z,23.60
2018-07-30T23:12:59.194Z,23.50
2018-07-30T23:19:04.666Z,23.40
2018-07-30T23:25:10.164Z,23.30
2018-07-30T23:31:15.671Z,23.20
2018-07-30T23:37:21.247Z,23.10
2018-07-30T23:43:26.618Z,23.10
2018-07-30T23:49:32.112Z,23.00
2018-07-30T23:55:37.626Z,23.00
